Pagrindinis puslapis
METAR-TAF:

METAR-TAF

Oro uostai :

Geilenkirchen, Vokietija

platuma: 50-57-39N, ilguma: 006-2-33E, Aukštis: 90 m

Dabartinis oras

Ataskaita buvo paskelbta 1 valandą ir 2 minutes, ne 08:50 UTC
Vėjas 7 kt iš Rytų/Pietryčių
Temperatūra 15°C
Drėgmė 51%
Slėgis 1029 hPa
Matomumas 10 km arba daugiau
nėra debesų žemiau 1500 m ir nėra kamuolinių lietaus debesų

METAR: ETNG 200850Z 11007KT CAVOK 15/05 Q1029 NOSIG

Laikas: 11:52 (09:52 UTC)

Prognozė

Ataskaita buvo paskelbta 1 valandą ir 52 minutes, ne 08:00 UTC
Prognozė galioja nuo 20 metu 09 UTC su 20 metu 24 UTC
Vėjas 3 kt nuo kintamojo kryptimis
Matomumas 10 km arba daugiau
nėra debesų žemiau 1500 m ir nėra kamuolinių lietaus debesų
Tapsmas
nuo 20 metu 08 UTC su 20 metu 10 UTC
Vėjas 8 kt iš Rytų
Tapsmas
nuo 20 metu 16 UTC su 20 metu 18 UTC
Vėjas 4 kt iš Rytų

TAF: ETNG 200800Z 2009/2024 VRB03KT CAVOK BECMG 2008/2010 08008KT BECMG 2016/2018 09004KT

Orai ataskaitas ir orų prognozės (METAR, TAF).

turimą stotys yra geltonos ir raudonos taškus žemėlapyje.

Perkelti pele per norėdami pamatyti stoties vardą.

Tada spustelėkite, norėdami matyti oro stebėjimo ir prognozės.

Norėdami pakeisti žemėlapį: spustelėkite ant žalios mygtukų su juodo kryžiaus žemyn,; žalią mygtuką su brūkšneliu, jei norite nutolinti; arba žalių rodyklių gretimoms žemėlapius.


METAR-TAF: